createdAt,value
2023-04-17T00:01:45.146Z,1.58
2023-04-17T00:03:47.609Z,2.15
2023-04-17T00:05:49.921Z,1.50
2023-04-17T00:07:52.072Z,1.55
2023-04-17T00:09:54.200Z,1.45
2023-04-17T00:11:56.380Z,1.42
2023-04-17T00:13:58.584Z,2.35
2023-04-17T00:16:00.869Z,1.45
2023-04-17T00:18:03.050Z,1.45
2023-04-17T00:20:09.990Z,1.25
2023-04-17T00:22:12.177Z,1.25
2023-04-17T00:24:14.408Z,1.40
2023-04-17T00:26:16.627Z,1.40
2023-04-17T00:28:19.336Z,1.40
2023-04-17T00:30:21.502Z,1.50
2023-04-17T00:32:23.658Z,1.25
2023-04-17T00:34:25.808Z,1.38
2023-04-17T00:36:28.088Z,1.40
2023-04-17T00:38:30.308Z,1.52
2023-04-17T00:40:32.527Z,1.65
2023-04-17T00:42:34.720Z,2.38
2023-04-17T00:44:36.929Z,1.70
2023-04-17T00:46:39.177Z,1.90
2023-04-17T00:48:41.350Z,1.70
2023-04-17T00:50:44.422Z,1.83
2023-04-17T00:52:47.263Z,1.92
2023-04-17T00:54:49.394Z,1.60
2023-04-17T00:56:52.446Z,2.53
2023-04-17T00:58:55.285Z,2.65
2023-04-17T01:00:57.527Z,1.40
2023-04-17T01:02:59.869Z,1.60
2023-04-17T01:05:02.149Z,2.08
2023-04-17T01:07:04.350Z,2.33
2023-04-17T01:09:06.867Z,3.10
2023-04-17T01:11:09.438Z,2.58
2023-04-17T01:13:11.701Z,4.47
2023-04-17T01:15:13.871Z,2.20
2023-04-17T01:17:16.031Z,3.42
2023-04-17T01:19:18.738Z,3.35
2023-04-17T01:21:21.080Z,2.38
2023-04-17T01:23:23.267Z,1.80
2023-04-17T01:25:25.986Z,1.52
2023-04-17T01:29:30.398Z,1.70
2023-04-17T01:31:32.549Z,3.35
2023-04-17T01:33:34.723Z,1.60
2023-04-17T01:35:36.915Z,2.08
2023-04-17T01:37:39.194Z,1.70
2023-04-17T01:39:41.452Z,1.48
2023-04-17T01:41:43.716Z,1.38
2023-04-17T01:43:46.999Z,1.88
2023-04-17T01:45:49.259Z,1.63
2023-04-17T01:47:51.661Z,2.28
2023-04-17T01:49:53.901Z,1.70
2023-04-17T01:51:56.062Z,1.83
2023-04-17T01:53:58.182Z,2.25
2023-04-17T01:56:01.903Z,2.10
2023-04-17T01:58:04.171Z,1.90
2023-04-17T02:00:07.969Z,2.22
2023-04-17T02:02:10.165Z,1.88
2023-04-17T02:04:12.516Z,2.35
2023-04-17T02:06:14.837Z,2.20
2023-04-17T02:08:17.225Z,2.00
2023-04-17T02:10:19.418Z,1.70
2023-04-17T02:12:21.887Z,2.40
2023-04-17T02:14:24.081Z,1.50
2023-04-17T02:16:26.341Z,1.65
2023-04-17T02:18:28.771Z,1.90
2023-04-17T02:20:30.986Z,1.70
2023-04-17T02:22:33.283Z,2.00
2023-04-17T02:24:35.497Z,2.00
2023-04-17T02:26:37.903Z,2.20
2023-04-17T02:28:40.385Z,3.20
2023-04-17T02:30:42.622Z,1.85
2023-04-17T02:32:45.261Z,3.03
2023-04-17T02:36:49.539Z,2.00
2023-04-17T02:38:51.798Z,2.65
2023-04-17T02:40:54.079Z,1.90
2023-04-17T02:42:56.805Z,1.95
2023-04-17T02:47:01.176Z,2.33
2023-04-17T02:49:03.414Z,1.95
2023-04-17T02:51:05.913Z,1.90
2023-04-17T02:53:09.008Z,2.10
2023-04-17T02:55:11.213Z,2.35
2023-04-17T02:57:13.432Z,2.30
2023-04-17T02:59:15.833Z,1.80
2023-04-17T03:01:18.128Z,1.95
2023-04-17T03:03:20.492Z,2.00
2023-04-17T03:05:25.864Z,2.20
2023-04-17T03:07:28.282Z,2.00
2023-04-17T03:09:31.003Z,2.00
2023-04-17T03:11:33.209Z,2.10
2023-04-17T03:13:39.011Z,2.63
2023-04-17T03:15:41.424Z,2.28
2023-04-17T03:17:43.768Z,3.85
2023-04-17T03:19:46.027Z,2.00
2023-04-17T03:21:48.193Z,2.25
2023-04-17T03:23:50.590Z,2.63
2023-04-17T03:25:52.862Z,2.35
2023-04-17T03:27:56.460Z,2.42
2023-04-17T03:29:58.706Z,3.00
2023-04-17T03:32:00.997Z,2.50
2023-04-17T03:34:03.696Z,2.60
2023-04-17T03:38:08.400Z,2.38
2023-04-17T03:40:10.770Z,2.42
2023-04-17T03:42:14.636Z,2.53
2023-04-17T03:44:17.444Z,2.50
2023-04-17T03:48:21.769Z,6.15
2023-04-17T03:50:23.903Z,3.60
2023-04-17T03:52:26.288Z,3.85
2023-04-17T03:54:29.852Z,3.03
2023-04-17T03:56:32.286Z,2.85
2023-04-17T03:58:34.750Z,3.83
2023-04-17T04:00:37.486Z,3.75
2023-04-17T04:02:39.769Z,3.03
2023-04-17T04:04:42.183Z,3.10
2023-04-17T04:06:45.033Z,3.20
2023-04-17T04:08:47.395Z,4.88
2023-04-17T04:10:49.599Z,4.22
2023-04-17T04:12:51.768Z,3.65
2023-04-17T04:14:53.966Z,3.58
2023-04-17T04:16:56.106Z,3.47
2023-04-17T04:18:58.269Z,4.22
2023-04-17T04:21:00.409Z,3.03
2023-04-17T04:23:04.524Z,3.65
2023-04-17T04:25:07.019Z,3.15
2023-04-17T04:27:09.276Z,3.30
2023-04-17T04:29:11.975Z,4.40
2023-04-17T04:31:18.878Z,5.13
2023-04-17T04:33:21.480Z,5.68
2023-04-17T04:35:30.282Z,5.65
2023-04-17T04:37:32.665Z,5.78
2023-04-17T04:39:37.914Z,5.22
2023-04-17T04:41:45.884Z,6.97
2023-04-17T04:43:47.995Z,5.10
2023-04-17T04:45:50.340Z,5.10
2023-04-17T04:47:52.769Z,5.47
2023-04-17T04:49:55.012Z,5.60
2023-04-17T04:51:57.220Z,8.50
2023-04-17T04:53:59.456Z,6.93
2023-04-17T04:56:01.660Z,5.63
2023-04-17T04:58:03.862Z,7.10
2023-04-17T05:00:06.669Z,6.85
2023-04-17T05:02:09.134Z,9.20
2023-04-17T05:04:11.544Z,8.50
2023-04-17T05:06:14.432Z,8.73
2023-04-17T05:08:16.962Z,9.57
2023-04-17T05:10:19.230Z,11.07
2023-04-17T05:12:21.425Z,11.93
2023-04-17T05:14:23.595Z,12.93
2023-04-17T05:16:25.770Z,9.88
2023-04-17T05:18:27.947Z,15.13
2023-04-17T05:20:30.775Z,11.55
2023-04-17T05:22:33.355Z,15.00
2023-04-17T05:24:35.644Z,12.88
2023-04-17T05:26:37.754Z,13.23
2023-04-17T05:28:39.928Z,15.10
2023-04-17T05:30:42.170Z,12.20
2023-04-17T05:32:45.410Z,13.93
2023-04-17T05:34:47.615Z,12.20
2023-04-17T05:36:49.721Z,12.18
2023-04-17T05:38:52.022Z,13.80
2023-04-17T05:40:54.448Z,13.00
2023-04-17T05:42:56.611Z,13.98
2023-04-17T05:44:58.753Z,12.55
2023-04-17T05:47:00.835Z,10.48
2023-04-17T05:49:02.958Z,8.60
2023-04-17T05:51:05.480Z,12.05
2023-04-17T05:53:07.832Z,9.77
2023-04-17T05:55:10.816Z,10.40
2023-04-17T05:57:12.933Z,11.93
2023-04-17T05:59:15.048Z,13.40
2023-04-17T06:01:22.347Z,13.00
2023-04-17T06:03:24.810Z,12.90
2023-04-17T06:07:29.518Z,11.05
2023-04-17T06:09:32.124Z,10.85
2023-04-17T06:11:34.326Z,10.23
2023-04-17T06:13:36.963Z,10.05
2023-04-17T06:17:41.849Z,9.53
2023-04-17T06:19:44.063Z,7.25
2023-04-17T06:21:46.275Z,7.45
2023-04-17T06:23:48.449Z,6.95
2023-04-17T06:25:50.685Z,5.85
2023-04-17T06:27:52.914Z,6.15
2023-04-17T06:29:55.060Z,6.90
2023-04-17T06:31:57.312Z,6.22
2023-04-17T06:34:02.588Z,6.65
2023-04-17T06:36:04.831Z,5.00
2023-04-17T06:38:07.365Z,5.43
2023-04-17T06:40:09.830Z,4.85
2023-04-17T06:42:12.123Z,5.22
2023-04-17T06:44:14.338Z,6.45
2023-04-17T06:46:16.682Z,6.05
2023-04-17T06:48:18.903Z,5.95
2023-04-17T06:50:21.098Z,6.10
2023-04-17T06:52:23.226Z,5.43
2023-04-17T06:54:25.631Z,7.18
2023-04-17T06:56:27.772Z,7.18
2023-04-17T06:58:29.903Z,6.22
2023-04-17T07:00:32.091Z,9.00
2023-04-17T07:02:34.401Z,5.53
2023-04-17T07:04:36.683Z,6.60
2023-04-17T07:06:39.630Z,7.88
2023-04-17T07:08:41.829Z,7.63
2023-04-17T07:10:43.998Z,7.45
2023-04-17T07:12:46.411Z,9.10
2023-04-17T07:14:48.525Z,7.40
2023-04-17T07:16:50.897Z,6.93
2023-04-17T07:18:53.305Z,6.82
2023-04-17T07:20:56.241Z,7.43
2023-04-17T07:22:58.749Z,5.72
2023-04-17T07:25:01.275Z,6.80
2023-04-17T07:27:03.981Z,7.05
2023-04-17T07:31:08.810Z,6.93
2023-04-17T07:33:11.183Z,6.53
2023-04-17T07:35:13.353Z,7.18
2023-04-17T07:37:15.767Z,7.25
2023-04-17T07:39:18.082Z,6.72
2023-04-17T07:41:20.344Z,8.50
2023-04-17T07:43:22.544Z,6.40
2023-04-17T07:45:24.704Z,7.78
2023-04-17T07:47:26.931Z,6.93
2023-04-17T07:49:30.263Z,7.40
2023-04-17T07:51:32.863Z,8.50
2023-04-17T07:53:36.226Z,5.72
2023-04-17T07:55:38.368Z,6.80
2023-04-17T07:57:42.762Z,8.02
2023-04-17T07:59:45.735Z,5.28
2023-04-17T08:01:47.929Z,7.28
2023-04-17T08:03:51.806Z,6.60
2023-04-17T08:05:54.255Z,6.65
2023-04-17T08:07:56.931Z,7.22
2023-04-17T08:09:59.064Z,8.90
2023-04-17T08:12:01.959Z,9.77
2023-04-17T08:14:04.209Z,8.38
2023-04-17T08:16:07.360Z,7.63
2023-04-17T08:18:10.172Z,7.15
2023-04-17T08:20:13.466Z,10.35
2023-04-17T08:22:15.859Z,9.35
2023-04-17T08:24:19.956Z,8.20
2023-04-17T08:26:23.047Z,10.40
2023-04-17T08:28:25.236Z,8.48
2023-04-17T08:30:27.574Z,12.45
2023-04-17T08:32:29.774Z,9.43
2023-04-17T08:34:32.809Z,11.30
2023-04-17T08:36:35.025Z,12.68
2023-04-17T08:38:37.354Z,13.27
2023-04-17T08:40:42.071Z,12.40
2023-04-17T08:42:44.362Z,15.77
2023-04-17T08:44:46.622Z,10.88
2023-04-17T08:46:49.462Z,15.10
2023-04-17T08:48:52.279Z,16.23
2023-04-17T08:50:55.061Z,16.30
2023-04-17T08:55:01.722Z,19.50
2023-04-17T08:57:04.491Z,12.07
2023-04-17T08:59:06.681Z,12.75
2023-04-17T09:01:12.794Z,13.70
2023-04-17T09:03:15.508Z,15.65
2023-04-17T09:05:21.785Z,13.02
2023-04-17T09:07:31.809Z,16.92
2023-04-17T09:09:52.879Z,14.52
2023-04-17T09:12:11.144Z,15.00
2023-04-17T09:14:31.895Z,13.77
2023-04-17T09:16:35.303Z,17.85
2023-04-17T09:18:38.049Z,15.77
2023-04-17T09:22:42.438Z,24.20
2023-04-17T09:24:44.861Z,19.83
2023-04-17T09:26:47.078Z,20.27
2023-04-17T09:29:01.801Z,23.05
2023-04-17T09:31:05.545Z,22.60
2023-04-17T09:33:08.590Z,23.65
2023-04-17T09:35:10.856Z,26.88
2023-04-17T09:37:13.042Z,25.40
2023-04-17T09:39:24.384Z,28.35
2023-04-17T09:41:27.780Z,24.83
2023-04-17T09:43:44.487Z,25.48
2023-04-17T09:45:46.830Z,26.38
2023-04-17T09:47:49.363Z,25.58
2023-04-17T09:49:52.889Z,28.25
2023-04-17T09:51:56.870Z,25.25
2023-04-17T09:53:59.984Z,26.55
2023-04-17T09:56:05.554Z,25.42
2023-04-17T09:58:08.197Z,27.77
2023-04-17T10:02:15.285Z,29.15
2023-04-17T10:04:18.065Z,28.30
2023-04-17T10:06:20.641Z,31.27
2023-04-17T10:08:23.064Z,26.63
2023-04-17T10:10:33.641Z,28.15
2023-04-17T10:12:37.172Z,24.95
2023-04-17T10:14:40.178Z,23.02
2023-04-17T10:16:43.688Z,28.45
2023-04-17T10:18:46.177Z,27.30
2023-04-17T10:20:48.593Z,24.73
2023-04-17T10:22:54.858Z,26.60
2023-04-17T10:25:14.806Z,25.35
2023-04-17T10:27:28.722Z,30.63
2023-04-17T10:29:49.753Z,29.05
2023-04-17T10:32:10.790Z,27.55
2023-04-17T10:34:33.113Z,26.48
2023-04-17T10:36:41.508Z,26.35
2023-04-17T10:38:44.360Z,23.90
2023-04-17T10:40:46.522Z,27.77
2023-04-17T10:43:06.856Z,23.13
2023-04-17T10:45:18.984Z,27.33
2023-04-17T10:47:22.493Z,27.60
2023-04-17T10:49:24.929Z,25.20
2023-04-17T10:51:27.857Z,26.05
2023-04-17T10:53:45.753Z,29.65
2023-04-17T10:55:50.531Z,25.20
2023-04-17T10:57:52.685Z,26.27
2023-04-17T11:00:12.014Z,22.42
2023-04-17T11:02:15.458Z,24.80
2023-04-17T11:04:31.547Z,24.00
2023-04-17T11:06:37.409Z,26.98
2023-04-17T11:08:39.719Z,23.00
2023-04-17T11:10:42.041Z,23.90
2023-04-17T11:12:53.210Z,27.05
2023-04-17T11:15:01.822Z,25.15
2023-04-17T11:17:04.237Z,24.02
2023-04-17T11:19:06.663Z,24.73
2023-04-17T11:21:11.181Z,24.92
2023-04-17T11:23:13.713Z,22.48
2023-04-17T11:25:23.045Z,22.27
2023-04-17T11:27:25.306Z,22.77
2023-04-17T11:29:28.319Z,24.27
2023-04-17T11:31:30.675Z,22.15
2023-04-17T11:33:36.883Z,21.95
2023-04-17T11:35:40.875Z,21.08
2023-04-17T11:38:01.867Z,22.33
2023-04-17T11:40:08.875Z,23.85
2023-04-17T11:42:11.527Z,22.95
2023-04-17T11:44:14.135Z,22.13
2023-04-17T11:46:16.508Z,20.75
2023-04-17T11:48:22.949Z,19.27
2023-04-17T11:50:29.200Z,17.90
2023-04-17T11:52:31.460Z,18.35
2023-04-17T11:54:33.632Z,19.40
2023-04-17T11:56:35.846Z,14.52
2023-04-17T11:58:45.658Z,14.88
2023-04-17T12:01:04.253Z,13.80
2023-04-17T12:03:27.061Z,13.65
2023-04-17T12:05:30.261Z,16.05
2023-04-17T12:07:32.963Z,17.00
2023-04-17T12:09:35.893Z,16.85
2023-04-17T12:11:38.165Z,17.77
2023-04-17T12:13:40.462Z,17.13
2023-04-17T12:15:42.750Z,18.30
2023-04-17T12:17:44.947Z,18.80
2023-04-17T12:19:47.108Z,17.05
2023-04-17T12:21:49.251Z,17.20
2023-04-17T12:23:51.858Z,16.55
2023-04-17T12:25:54.101Z,19.52
2023-04-17T12:27:59.145Z,16.80
2023-04-17T12:30:01.275Z,15.63
2023-04-17T12:32:03.766Z,16.83
2023-04-17T12:34:06.365Z,15.07
2023-04-17T12:36:08.954Z,13.98
2023-04-17T12:38:11.278Z,15.00
2023-04-17T12:40:13.468Z,15.80
2023-04-17T12:42:16.249Z,13.52
2023-04-17T12:46:20.521Z,13.43
2023-04-17T12:48:22.704Z,15.02
2023-04-17T12:50:25.222Z,15.43
2023-04-17T12:52:27.420Z,14.77
2023-04-17T12:54:29.597Z,13.07
2023-04-17T12:56:31.862Z,12.63
2023-04-17T12:58:34.080Z,14.05
2023-04-17T13:00:36.345Z,13.38
2023-04-17T13:02:38.634Z,11.98
2023-04-17T13:04:41.283Z,13.02
2023-04-17T13:06:43.634Z,12.13
2023-04-17T13:08:46.074Z,13.13
2023-04-17T13:10:48.323Z,12.60
2023-04-17T13:12:50.719Z,10.43
2023-04-17T13:14:53.325Z,9.45
2023-04-17T13:16:55.690Z,9.05
2023-04-17T13:18:57.942Z,10.38
2023-04-17T13:21:00.188Z,9.70
2023-04-17T13:23:02.567Z,16.92
2023-04-17T13:25:04.995Z,9.90
2023-04-17T13:27:07.188Z,9.25
2023-04-17T13:29:09.642Z,9.50
2023-04-17T13:31:13.216Z,9.30
2023-04-17T13:33:15.486Z,10.68
2023-04-17T13:35:17.806Z,9.38
2023-04-17T13:37:20.062Z,8.35
2023-04-17T13:39:25.440Z,8.50
2023-04-17T13:41:27.625Z,8.65
2023-04-17T13:43:29.901Z,8.80
2023-04-17T13:45:32.164Z,8.38
2023-04-17T13:47:34.452Z,8.90
2023-04-17T13:49:36.655Z,9.52
2023-04-17T13:51:38.812Z,9.40
2023-04-17T13:53:41.287Z,8.57
2023-04-17T13:55:43.487Z,10.02
2023-04-17T13:57:45.719Z,8.88
2023-04-17T13:59:47.896Z,7.53
2023-04-17T14:01:50.161Z,8.77
2023-04-17T14:03:52.589Z,7.25
2023-04-17T14:05:54.988Z,6.82
2023-04-17T14:07:57.247Z,7.18
2023-04-17T14:09:59.429Z,6.68
2023-04-17T14:12:02.346Z,7.38
2023-04-17T14:14:04.632Z,7.35
2023-04-17T14:16:07.062Z,8.35
2023-04-17T14:18:09.855Z,8.80
2023-04-17T14:22:14.287Z,8.85
2023-04-17T14:24:16.601Z,8.00
2023-04-17T14:26:18.807Z,9.93
2023-04-17T14:28:21.360Z,9.52
2023-04-17T14:30:23.690Z,8.38
2023-04-17T14:32:25.943Z,8.80
2023-04-17T14:34:28.187Z,8.90
2023-04-17T14:36:31.155Z,7.47
2023-04-17T14:38:34.341Z,8.73
2023-04-17T14:40:36.534Z,8.63
2023-04-17T14:42:51.215Z,8.40
2023-04-17T14:44:56.072Z,8.63
2023-04-17T14:46:58.393Z,9.25
2023-04-17T14:49:00.575Z,7.75
2023-04-17T14:51:02.749Z,8.23
2023-04-17T14:53:04.907Z,8.50
2023-04-17T14:55:07.292Z,8.65
2023-04-17T14:57:09.457Z,9.15
2023-04-17T14:59:12.083Z,8.20
2023-04-17T15:01:14.534Z,9.02
2023-04-17T15:03:16.919Z,9.48
2023-04-17T15:05:20.905Z,9.10
2023-04-17T15:07:23.163Z,9.35
2023-04-17T15:09:25.347Z,8.55
2023-04-17T15:11:27.548Z,6.75
2023-04-17T15:13:29.680Z,6.63
2023-04-17T15:15:31.944Z,6.25
2023-04-17T15:17:35.813Z,5.97
2023-04-17T15:19:38.026Z,5.13
2023-04-17T15:21:40.172Z,4.68
2023-04-17T15:23:42.366Z,4.40
2023-04-17T15:25:44.664Z,4.65
2023-04-17T15:27:46.865Z,4.35
2023-04-17T15:29:49.275Z,4.97
2023-04-17T15:31:52.703Z,4.70
2023-04-17T15:33:55.115Z,5.05
2023-04-17T15:35:58.582Z,4.43
2023-04-17T15:38:00.782Z,4.22
2023-04-17T15:40:03.430Z,4.72
2023-04-17T15:44:10.718Z,4.03
2023-04-17T15:46:12.949Z,3.58
2023-04-17T15:48:15.908Z,3.67
2023-04-17T15:50:19.135Z,3.92
2023-04-17T15:52:21.273Z,3.72
2023-04-17T15:54:23.633Z,3.92
2023-04-17T15:56:25.848Z,4.90
2023-04-17T15:58:28.016Z,3.78
2023-04-17T16:00:30.297Z,4.55
2023-04-17T16:02:32.622Z,4.20
2023-04-17T16:04:35.118Z,4.00
2023-04-17T16:06:37.363Z,4.25
2023-04-17T16:08:39.645Z,4.47
2023-04-17T16:10:42.475Z,4.70
2023-04-17T16:12:45.266Z,4.60
2023-04-17T16:16:50.388Z,4.50
2023-04-17T16:18:52.529Z,4.30
2023-04-17T16:20:54.749Z,4.20
2023-04-17T16:22:57.262Z,6.85
2023-04-17T16:24:59.497Z,5.43
2023-04-17T16:27:02.852Z,5.53
2023-04-17T16:29:05.312Z,5.55
2023-04-17T16:31:07.502Z,5.30
2023-04-17T16:33:09.693Z,7.63
2023-04-17T16:35:11.884Z,6.10
2023-04-17T16:37:14.969Z,5.72
2023-04-17T16:39:17.152Z,5.72
2023-04-17T16:41:19.368Z,5.10
2023-04-17T16:43:21.531Z,5.65
2023-04-17T16:45:23.714Z,6.00
2023-04-17T16:47:26.277Z,6.40
2023-04-17T16:49:28.803Z,6.15
2023-04-17T16:51:31.903Z,6.78
2023-04-17T16:53:34.334Z,6.95
2023-04-17T16:55:37.367Z,10.25
2023-04-17T16:57:42.919Z,7.63
2023-04-17T16:59:45.311Z,7.78
2023-04-17T17:01:49.729Z,8.18
2023-04-17T17:03:53.225Z,6.53
2023-04-17T17:05:57.539Z,7.50
2023-04-17T17:07:59.992Z,7.82
2023-04-17T17:10:02.270Z,7.05
2023-04-17T17:12:04.978Z,7.47
2023-04-17T17:16:09.969Z,7.15
2023-04-17T17:20:14.697Z,6.78
2023-04-17T17:22:17.042Z,7.38
2023-04-17T17:24:19.285Z,7.13
2023-04-17T17:26:21.635Z,7.15
2023-04-17T17:28:24.092Z,7.00
2023-04-17T17:30:26.444Z,7.70
2023-04-17T17:32:29.019Z,9.40
2023-04-17T17:34:32.534Z,9.27
2023-04-17T17:36:35.079Z,9.60
2023-04-17T17:38:37.425Z,7.90
2023-04-17T17:40:39.739Z,9.05
2023-04-17T17:42:42.202Z,22.17
2023-04-17T17:44:44.555Z,12.88
2023-04-17T17:46:47.161Z,9.45
2023-04-17T17:48:49.710Z,8.90
2023-04-17T17:50:55.298Z,9.43
2023-04-17T17:52:58.970Z,9.85
2023-04-17T17:55:01.552Z,11.13
2023-04-17T17:57:04.800Z,10.27
2023-04-17T17:59:07.901Z,10.00
2023-04-17T18:01:10.562Z,10.10
2023-04-17T18:05:17.947Z,10.73
2023-04-17T18:07:22.203Z,10.18
2023-04-17T18:09:24.376Z,10.70
2023-04-17T18:11:27.510Z,10.38
2023-04-17T18:13:29.736Z,9.50
2023-04-17T18:15:31.926Z,9.77
2023-04-17T18:17:34.201Z,9.60
2023-04-17T18:19:40.825Z,10.93
2023-04-17T18:21:43.816Z,9.73
2023-04-17T18:23:47.140Z,10.10
2023-04-17T18:26:02.254Z,10.60
2023-04-17T18:28:04.496Z,10.77
2023-04-17T18:30:07.470Z,10.93
2023-04-17T18:32:09.689Z,13.27
2023-04-17T18:34:12.084Z,11.05
2023-04-17T18:36:14.318Z,13.57
2023-04-17T18:38:16.907Z,9.98
2023-04-17T18:40:19.132Z,9.88
2023-04-17T18:42:21.731Z,11.75
2023-04-17T18:46:27.012Z,10.13
2023-04-17T18:48:29.344Z,8.77
2023-04-17T18:50:31.552Z,9.50
2023-04-17T18:52:37.642Z,9.82
2023-04-17T18:54:39.911Z,9.45
2023-04-17T18:56:42.198Z,10.95
2023-04-17T18:58:44.388Z,12.43
2023-04-17T19:00:46.632Z,10.43
2023-04-17T19:02:48.998Z,8.88
2023-04-17T19:04:51.347Z,9.85
2023-04-17T19:06:54.100Z,8.95
2023-04-17T19:10:59.429Z,8.50
2023-04-17T19:13:01.590Z,8.32
2023-04-17T19:15:05.680Z,9.25
2023-04-17T19:17:07.892Z,9.75
2023-04-17T19:19:11.305Z,19.30
2023-04-17T19:21:15.652Z,19.05
2023-04-17T19:23:17.835Z,18.85
2023-04-17T19:25:20.034Z,16.02
2023-04-17T19:27:23.783Z,15.77
2023-04-17T19:29:26.808Z,11.77
2023-04-17T19:31:28.980Z,12.13
2023-04-17T19:33:34.284Z,11.48
2023-04-17T19:35:36.480Z,12.15
2023-04-17T19:37:38.652Z,17.10
2023-04-17T19:39:40.810Z,15.02
2023-04-17T19:41:46.029Z,13.10
2023-04-17T19:43:52.671Z,10.25
2023-04-17T19:45:54.853Z,10.15
2023-04-17T19:47:57.344Z,8.20
2023-04-17T19:49:59.589Z,8.68
2023-04-17T19:52:01.835Z,8.95
2023-04-17T19:54:04.086Z,8.35
2023-04-17T19:56:08.503Z,9.02
2023-04-17T19:58:10.898Z,8.57
2023-04-17T20:00:14.470Z,9.68
2023-04-17T20:02:18.131Z,10.27
2023-04-17T20:04:20.513Z,12.63
2023-04-17T20:06:22.808Z,12.88
2023-04-17T20:08:25.434Z,11.77
2023-04-17T20:10:27.795Z,9.60
2023-04-17T20:12:29.988Z,9.75
2023-04-17T20:14:32.357Z,9.32
2023-04-17T20:16:34.573Z,10.20
2023-04-17T20:18:37.968Z,8.88
2023-04-17T20:20:40.248Z,9.10
2023-04-17T20:22:42.375Z,9.52
2023-04-17T20:24:44.564Z,9.25
2023-04-17T20:26:46.769Z,9.90
2023-04-17T20:28:49.294Z,9.70
2023-04-17T20:30:51.493Z,11.18
2023-04-17T20:32:53.753Z,10.52
2023-04-17T20:34:55.917Z,12.55
2023-04-17T20:36:58.051Z,13.98
2023-04-17T20:39:00.200Z,11.13
2023-04-17T20:41:02.366Z,12.93
2023-04-17T20:43:04.639Z,12.55
2023-04-17T20:45:10.369Z,11.23
2023-04-17T20:47:12.571Z,11.10
2023-04-17T20:49:14.816Z,11.60
2023-04-17T20:51:18.182Z,11.85
2023-04-17T20:53:20.408Z,10.65
2023-04-17T20:55:24.194Z,11.32
2023-04-17T20:57:26.399Z,13.07
2023-04-17T20:59:28.922Z,11.48
2023-04-17T21:01:31.151Z,14.48
2023-04-17T21:03:33.588Z,10.95
2023-04-17T21:05:35.881Z,13.68
2023-04-17T21:07:38.500Z,11.00
2023-04-17T21:09:40.768Z,10.52
2023-04-17T21:11:42.916Z,10.38
2023-04-17T21:13:45.147Z,12.15
2023-04-17T21:15:47.411Z,11.00
2023-04-17T21:17:49.645Z,11.10
2023-04-17T21:19:52.115Z,11.38
2023-04-17T21:21:54.932Z,12.75
2023-04-17T21:23:57.077Z,11.38
2023-04-17T21:25:59.246Z,11.45
2023-04-17T21:28:01.407Z,12.35
2023-04-17T21:30:04.430Z,11.82
2023-04-17T21:32:06.851Z,12.60
2023-04-17T21:34:09.471Z,12.35
2023-04-17T21:36:11.597Z,12.15
2023-04-17T21:38:13.770Z,13.63
2023-04-17T21:40:15.926Z,12.80
2023-04-17T21:42:18.142Z,13.30
2023-04-17T21:44:20.370Z,12.50
2023-04-17T21:46:22.563Z,12.93
2023-04-17T21:48:24.748Z,13.50
2023-04-17T21:50:26.927Z,12.98
2023-04-17T21:52:29.102Z,13.55
2023-04-17T21:54:31.274Z,14.75
2023-04-17T21:56:33.472Z,14.35
2023-04-17T21:58:35.700Z,13.85
2023-04-17T22:00:37.878Z,14.80
2023-04-17T22:02:40.185Z,16.60
2023-04-17T22:04:42.559Z,15.65
2023-04-17T22:06:44.798Z,17.23
2023-04-17T22:08:46.961Z,13.90
2023-04-17T22:10:49.191Z,14.95
2023-04-17T22:12:51.749Z,16.15
2023-04-17T22:14:53.974Z,14.73
2023-04-17T22:16:56.249Z,14.43
2023-04-17T22:18:58.451Z,14.20
2023-04-17T22:21:00.585Z,14.50
2023-04-17T22:23:02.728Z,12.93
2023-04-17T22:25:05.203Z,13.25
2023-04-17T22:27:07.489Z,13.63
2023-04-17T22:29:09.662Z,15.23
2023-04-17T22:31:14.007Z,13.95
2023-04-17T22:33:16.188Z,13.48
2023-04-17T22:35:18.289Z,12.68
2023-04-17T22:37:20.567Z,13.05
2023-04-17T22:39:22.755Z,13.68
2023-04-17T22:41:25.022Z,14.00
2023-04-17T22:43:27.186Z,11.77
2023-04-17T22:45:29.324Z,12.63
2023-04-17T22:47:31.529Z,11.55
2023-04-17T22:49:38.060Z,11.80
2023-04-17T22:51:41.219Z,11.65
2023-04-17T22:53:43.408Z,11.13
2023-04-17T22:55:45.662Z,10.68
2023-04-17T22:57:47.833Z,10.30
2023-04-17T22:59:49.996Z,10.25
2023-04-17T23:01:52.355Z,9.88
2023-04-17T23:03:54.558Z,10.40
2023-04-17T23:05:57.075Z,9.48
2023-04-17T23:07:59.278Z,9.25
2023-04-17T23:10:01.465Z,9.13
2023-04-17T23:12:03.881Z,9.35
2023-04-17T23:14:06.137Z,9.70
2023-04-17T23:16:08.592Z,9.70
2023-04-17T23:18:10.958Z,8.68
2023-04-17T23:20:13.237Z,8.82
2023-04-17T23:22:15.422Z,8.82
2023-04-17T23:24:17.574Z,9.52
2023-04-17T23:26:19.792Z,10.07
2023-04-17T23:28:22.006Z,9.75
2023-04-17T23:30:24.121Z,10.65
2023-04-17T23:32:26.951Z,8.73
2023-04-17T23:34:29.205Z,11.02
2023-04-17T23:36:31.756Z,9.25
2023-04-17T23:38:33.906Z,10.50
2023-04-17T23:40:36.515Z,10.18
2023-04-17T23:42:38.670Z,9.43
2023-04-17T23:44:40.833Z,9.90
2023-04-17T23:46:43.074Z,9.43
2023-04-17T23:48:45.387Z,10.35
2023-04-17T23:50:47.515Z,10.93
2023-04-17T23:52:49.965Z,10.70
2023-04-17T23:54:52.127Z,8.63
2023-04-17T23:56:54.278Z,9.60
2023-04-17T23:58:56.857Z,9.52
